< < Back
Terminal Aerodrome Forecast


Current Version              Previous Versions:   1  2  3  4  5  6  7  8  9  

Terminal Aerodrome Forecast

285
FTUS44 KBMX 242341
TAFTCL
TAF
KTCL 242341Z 2500/2524 00000KT P6SM FEW080
     FM250300 13007KT P6SM VCSH BKN050 OVC100
     FM250900 16010KT P6SM VCSH OVC015
     FM251500 20012KT P6SM VCTS BKN025CB=

Latest METAR

861
SAUS70 KWBC 250400 RRD
MTRTCL
METAR KTCL 250353Z AUTO VRB03KT 10SM OVC110 21/12 A2987 RMK AO2 SLP112
T02060117


USA.gov is the U.S. government's official web portal to all federal, state and local government web resources and services.